QFA499 YMML-YSSY
Flight info
| Callsign | QFA499 |
|---|---|
| Flight time | 0h 57m |
| Altitude | 37000 |
| Route | ML H129 DOSEL Y59 RIVET |
| Aircraft | B738/M-SDE2E3FGHIRWXY/LB1 |
Departure
| Time | 2026-05-07 12:17 |
|---|---|
| Airport | Melbourne Airport (YMML) |
Arrival
| Time | 2026-05-07 13:14 |
|---|---|
| Airport | Sydney Kingsford Smith International Airport (YSSY) |
| Time | Latitude | Longitude | Altitude | Speed | Heading |
|---|---|---|---|---|---|
| 2026-05-07 11:58 | -37.66649 | 144.85009 | 401 ft | 0 kts | 262° |
| 2026-05-07 12:00 | -37.66652 | 144.84986 | 401 ft | 0 kts | 262° |
| 2026-05-07 12:02 | -37.66652 | 144.84987 | 401 ft | 0 kts | 262° |
| 2026-05-07 12:09 | -37.66651 | 144.84992 | 401 ft | 3 kts | 262° |
| 2026-05-07 12:09 | -37.66650 | 144.85000 | 401 ft | 3 kts | 262° |
| 2026-05-07 12:09 | -37.66647 | 144.85026 | 398 ft | 3 kts | 261° |
| 2026-05-07 12:10 | -37.66645 | 144.85050 | 397 ft | 3 kts | 285° |
| 2026-05-07 12:10 | -37.66655 | 144.85069 | 397 ft | 3 kts | 338° |
| 2026-05-07 12:10 | -37.66673 | 144.85075 | 394 ft | 2 kts | 351° |
| 2026-05-07 12:10 | -37.66678 | 144.85076 | 398 ft | 2 kts | 351° |
| 2026-05-07 12:12 | -37.66677 | 144.85076 | 398 ft | 1 kts | 351° |
| 2026-05-07 12:13 | -37.66640 | 144.85069 | 400 ft | 7 kts | 351° |
| 2026-05-07 12:13 | -37.66591 | 144.85060 | 401 ft | 7 kts | 355° |
| 2026-05-07 12:13 | -37.66542 | 144.85054 | 404 ft | 7 kts | 351° |
| 2026-05-07 12:13 | -37.66495 | 144.85044 | 406 ft | 7 kts | 345° |
| 2026-05-07 12:14 | -37.66453 | 144.85015 | 404 ft | 8 kts | 325° |
| 2026-05-07 12:14 | -37.66390 | 144.84952 | 410 ft | 15 kts | 321° |
| 2026-05-07 12:14 | -37.66364 | 144.84926 | 408 ft | 0 kts | 321° |
| 2026-05-07 12:15 | -37.66361 | 144.84923 | 409 ft | 4 kts | 321° |
| 2026-05-07 12:15 | -37.66309 | 144.84867 | 409 ft | 16 kts | 319° |
| 2026-05-07 12:16 | -37.66224 | 144.84728 | 409 ft | 22 kts | 281° |
| 2026-05-07 12:16 | -37.66223 | 144.84713 | 411 ft | 0 kts | 274° |
| 2026-05-07 12:16 | -37.66222 | 144.84710 | 412 ft | 7 kts | 274° |
| 2026-05-07 12:16 | -37.66195 | 144.84216 | 410 ft | 104 kts | 274° |
| 2026-05-07 12:17 | -37.66118 | 144.82950 | 427 ft | 183 kts | 275° |
| 2026-05-07 12:17 | -37.65989 | 144.81212 | 1028 ft | 210 kts | 273° |
| 2026-05-07 12:17 | -37.65877 | 144.79328 | 2174 ft | 215 kts | 271° |
| 2026-05-07 12:17 | -37.65765 | 144.77491 | 3629 ft | 209 kts | 266° |
| 2026-05-07 12:18 | -37.65686 | 144.75636 | 4818 ft | 215 kts | 265° |
| 2026-05-07 12:18 | -37.65593 | 144.73740 | 5922 ft | 221 kts | 266° |
| 2026-05-07 12:18 | -37.65485 | 144.71758 | 6801 ft | 232 kts | 265° |
| 2026-05-07 12:18 | -37.65369 | 144.69734 | 7866 ft | 232 kts | 266° |
| 2026-05-07 12:19 | -37.65047 | 144.67694 | 8806 ft | 250 kts | 286° |
| 2026-05-07 12:19 | -37.63981 | 144.65861 | 9783 ft | 272 kts | 310° |
| 2026-05-07 12:19 | -37.62347 | 144.64539 | 10658 ft | 287 kts | 327° |
| 2026-05-07 12:19 | -37.60464 | 144.63665 | 11472 ft | 297 kts | 336° |
| 2026-05-07 12:20 | -37.58461 | 144.62944 | 12265 ft | 302 kts | 337° |
| 2026-05-07 12:20 | -37.56385 | 144.62328 | 13031 ft | 314 kts | 349° |
| 2026-05-07 12:20 | -37.54153 | 144.62670 | 13429 ft | 341 kts | 19° |
| 2026-05-07 12:20 | -37.52128 | 144.64362 | 13617 ft | 362 kts | 50° |
| 2026-05-07 12:21 | -37.50568 | 144.66936 | 13872 ft | 379 kts | 58° |
| 2026-05-07 12:21 | -37.49026 | 144.69694 | 14341 ft | 389 kts | 57° |
| 2026-05-07 12:21 | -37.47455 | 144.72468 | 15071 ft | 390 kts | 58° |
| 2026-05-07 12:21 | -37.46001 | 144.75347 | 15800 ft | 392 kts | 63° |
| 2026-05-07 12:22 | -37.44654 | 144.78298 | 16428 ft | 397 kts | 65° |
| 2026-05-07 12:22 | -37.43304 | 144.81351 | 17099 ft | 401 kts | 65° |
| 2026-05-07 12:22 | -37.41945 | 144.84422 | 17817 ft | 403 kts | 65° |
| 2026-05-07 12:22 | -37.40562 | 144.87514 | 18470 ft | 408 kts | 65° |
| 2026-05-07 12:23 | -37.39151 | 144.90633 | 19049 ft | 413 kts | 64° |
| 2026-05-07 12:23 | -37.37714 | 144.93778 | 19629 ft | 417 kts | 64° |
| 2026-05-07 12:23 | -37.36262 | 144.96941 | 20215 ft | 420 kts | 63° |
| 2026-05-07 12:23 | -37.34792 | 145.00130 | 20783 ft | 424 kts | 63° |
| 2026-05-07 12:24 | -37.33305 | 145.03352 | 21295 ft | 430 kts | 63° |
| 2026-05-07 12:24 | -37.31815 | 145.06577 | 21783 ft | 435 kts | 63° |
| 2026-05-07 12:24 | -37.30288 | 145.09879 | 22346 ft | 438 kts | 63° |
| 2026-05-07 12:24 | -37.28752 | 145.13195 | 22918 ft | 441 kts | 63° |
| 2026-05-07 12:25 | -37.27205 | 145.16532 | 23448 ft | 444 kts | 63° |
| 2026-05-07 12:25 | -37.25648 | 145.19891 | 23943 ft | 447 kts | 63° |
| 2026-05-07 12:25 | -37.24078 | 145.23273 | 24381 ft | 450 kts | 62° |
| 2026-05-07 12:25 | -37.22500 | 145.26669 | 24849 ft | 452 kts | 62° |
| 2026-05-07 12:26 | -37.20911 | 145.30088 | 25290 ft | 454 kts | 62° |
| 2026-05-07 12:26 | -37.19315 | 145.33516 | 25758 ft | 456 kts | 61° |
| 2026-05-07 12:26 | -37.17713 | 145.36951 | 26219 ft | 457 kts | 61° |
| 2026-05-07 12:26 | -37.16117 | 145.40344 | 26681 ft | 459 kts | 59° |
| 2026-05-07 12:27 | -37.14357 | 145.43682 | 27147 ft | 460 kts | 55° |
| 2026-05-07 12:27 | -37.12484 | 145.46943 | 27633 ft | 461 kts | 53° |
| 2026-05-07 12:27 | -37.10574 | 145.50167 | 28129 ft | 461 kts | 53° |
| 2026-05-07 12:27 | -37.08658 | 145.53386 | 28650 ft | 461 kts | 52° |
| 2026-05-07 12:28 | -37.06750 | 145.56615 | 29157 ft | 461 kts | 52° |
| 2026-05-07 12:28 | -37.04857 | 145.59848 | 29655 ft | 460 kts | 52° |
| 2026-05-07 12:28 | -37.02979 | 145.63082 | 30189 ft | 459 kts | 52° |
| 2026-05-07 12:28 | -37.01083 | 145.66356 | 30241 ft | 470 kts | 53° |
| 2026-05-07 12:29 | -36.99171 | 145.69664 | 30269 ft | 481 kts | 53° |
| 2026-05-07 12:29 | -36.97191 | 145.73091 | 30277 ft | 492 kts | 53° |
| 2026-05-07 12:29 | -36.95168 | 145.76593 | 30275 ft | 502 kts | 53° |
| 2026-05-07 12:30 | -36.90992 | 145.83807 | 30277 ft | 522 kts | 53° |
| 2026-05-07 12:30 | -36.86665 | 145.91264 | 30250 ft | 538 kts | 53° |
| 2026-05-07 12:31 | -36.82241 | 145.98870 | 30264 ft | 550 kts | 53° |
| 2026-05-07 12:31 | -36.77709 | 146.06645 | 30289 ft | 557 kts | 52° |
| 2026-05-07 12:32 | -36.73150 | 146.14449 | 30261 ft | 555 kts | 52° |
| 2026-05-07 12:32 | -36.68595 | 146.22225 | 30256 ft | 555 kts | 52° |
| 2026-05-07 12:33 | -36.61780 | 146.33826 | 30264 ft | 556 kts | 52° |
| 2026-05-07 12:33 | -36.57201 | 146.41598 | 30272 ft | 557 kts | 52° |
| 2026-05-07 12:34 | -36.52611 | 146.49371 | 30261 ft | 558 kts | 52° |
| 2026-05-07 12:34 | -36.48012 | 146.57142 | 30235 ft | 557 kts | 52° |
| 2026-05-07 12:35 | -36.43425 | 146.64876 | 30269 ft | 556 kts | 52° |
| 2026-05-07 12:35 | -36.38865 | 146.72546 | 30266 ft | 556 kts | 52° |
| 2026-05-07 12:36 | -36.34265 | 146.80266 | 30246 ft | 556 kts | 52° |
| 2026-05-07 12:36 | -36.29668 | 146.87964 | 30270 ft | 556 kts | 52° |
| 2026-05-07 12:37 | -36.25057 | 146.95669 | 30263 ft | 557 kts | 52° |
| 2026-05-07 12:37 | -36.20443 | 147.03364 | 30252 ft | 556 kts | 52° |
| 2026-05-07 12:38 | -36.15854 | 147.10998 | 30265 ft | 556 kts | 52° |
| 2026-05-07 12:38 | -36.11227 | 147.18678 | 30265 ft | 557 kts | 52° |
| 2026-05-07 12:39 | -36.06589 | 147.26365 | 30239 ft | 556 kts | 52° |
| 2026-05-07 12:39 | -36.01977 | 147.33994 | 30256 ft | 555 kts | 52° |
| 2026-05-07 12:40 | -35.97375 | 147.41589 | 30272 ft | 557 kts | 52° |
| 2026-05-07 12:40 | -35.92717 | 147.49257 | 30266 ft | 558 kts | 52° |
| 2026-05-07 12:41 | -35.88062 | 147.56909 | 30263 ft | 557 kts | 52° |
| 2026-05-07 12:41 | -35.83406 | 147.64544 | 30267 ft | 557 kts | 51° |
| 2026-05-07 12:42 | -35.78768 | 147.72122 | 30250 ft | 558 kts | 51° |
| 2026-05-07 12:42 | -35.74096 | 147.79739 | 30269 ft | 557 kts | 51° |
| 2026-05-07 12:43 | -35.69427 | 147.87340 | 30255 ft | 556 kts | 51° |
| 2026-05-07 12:43 | -35.64756 | 147.94927 | 30257 ft | 556 kts | 52° |
| 2026-05-07 12:44 | -35.60130 | 148.02425 | 30271 ft | 554 kts | 52° |
| 2026-05-07 12:44 | -35.55471 | 148.09963 | 30259 ft | 554 kts | 52° |
| 2026-05-07 12:45 | -35.50810 | 148.17485 | 30233 ft | 553 kts | 52° |
| 2026-05-07 12:45 | -35.46155 | 148.24993 | 30267 ft | 554 kts | 51° |
| 2026-05-07 12:46 | -35.41505 | 148.32455 | 30266 ft | 555 kts | 51° |
| 2026-05-07 12:46 | -35.36819 | 148.39947 | 30262 ft | 553 kts | 51° |
| 2026-05-07 12:47 | -35.32138 | 148.47421 | 30248 ft | 553 kts | 52° |
| 2026-05-07 12:47 | -35.27446 | 148.54902 | 30250 ft | 555 kts | 51° |
| 2026-05-07 12:48 | -35.22737 | 148.62392 | 30232 ft | 556 kts | 51° |
| 2026-05-07 12:48 | -35.18051 | 148.69831 | 30246 ft | 556 kts | 51° |
| 2026-05-07 12:49 | -35.13325 | 148.77315 | 30282 ft | 557 kts | 51° |
| 2026-05-07 12:49 | -35.08566 | 148.84837 | 30251 ft | 561 kts | 51° |
| 2026-05-07 12:50 | -35.03805 | 148.92347 | 30240 ft | 558 kts | 51° |
| 2026-05-07 12:50 | -34.99080 | 148.99782 | 30245 ft | 558 kts | 51° |
| 2026-05-07 12:51 | -34.94315 | 149.07265 | 30264 ft | 560 kts | 51° |
| 2026-05-07 12:51 | -34.89529 | 149.14765 | 30245 ft | 559 kts | 52° |
| 2026-05-07 12:52 | -34.84763 | 149.22219 | 30262 ft | 557 kts | 52° |
| 2026-05-07 12:52 | -34.80029 | 149.29610 | 30262 ft | 558 kts | 52° |
| 2026-05-07 12:53 | -34.75250 | 149.37057 | 30231 ft | 557 kts | 52° |
| 2026-05-07 12:53 | -34.71171 | 149.44948 | 30270 ft | 549 kts | 64° |
| 2026-05-07 12:54 | -34.67701 | 149.53224 | 30254 ft | 551 kts | 64° |
| 2026-05-07 12:54 | -34.64207 | 149.61450 | 30269 ft | 551 kts | 64° |
| 2026-05-07 12:55 | -34.60627 | 149.69639 | 30228 ft | 546 kts | 63° |
| 2026-05-07 12:55 | -34.57056 | 149.77741 | 30242 ft | 544 kts | 63° |
| 2026-05-07 12:56 | -34.53488 | 149.85840 | 30225 ft | 544 kts | 63° |
| 2026-05-07 12:56 | -34.49905 | 149.93969 | 29716 ft | 552 kts | 63° |
| 2026-05-07 12:57 | -34.48092 | 149.98069 | 29001 ft | 551 kts | 63° |
| 2026-05-07 12:57 | -34.46305 | 150.02104 | 28350 ft | 551 kts | 63° |
| 2026-05-07 12:57 | -34.44490 | 150.06202 | 27696 ft | 553 kts | 63° |
| 2026-05-07 12:57 | -34.42664 | 150.10319 | 27058 ft | 555 kts | 63° |
| 2026-05-07 12:58 | -34.40837 | 150.14433 | 26436 ft | 555 kts | 63° |
| 2026-05-07 12:58 | -34.39007 | 150.18552 | 25837 ft | 556 kts | 63° |
| 2026-05-07 12:58 | -34.37173 | 150.22672 | 25241 ft | 554 kts | 63° |
| 2026-05-07 12:58 | -34.35351 | 150.26761 | 24637 ft | 548 kts | 63° |
| 2026-05-07 12:59 | -34.33555 | 150.30787 | 23807 ft | 540 kts | 63° |
| 2026-05-07 12:59 | -34.31780 | 150.34758 | 22863 ft | 531 kts | 63° |
| 2026-05-07 12:59 | -34.30067 | 150.38595 | 21965 ft | 521 kts | 63° |
| 2026-05-07 12:59 | -34.28355 | 150.42425 | 21072 ft | 513 kts | 64° |
| 2026-05-07 13:00 | -34.26669 | 150.46181 | 20239 ft | 506 kts | 64° |
| 2026-05-07 13:00 | -34.25005 | 150.49899 | 19399 ft | 499 kts | 64° |
| 2026-05-07 13:00 | -34.23365 | 150.53561 | 18568 ft | 493 kts | 64° |
| 2026-05-07 13:00 | -34.21755 | 150.57153 | 17656 ft | 479 kts | 64° |
| 2026-05-07 13:01 | -34.20189 | 150.60644 | 16749 ft | 465 kts | 65° |
| 2026-05-07 13:01 | -34.18667 | 150.64028 | 15851 ft | 453 kts | 65° |
| 2026-05-07 13:01 | -34.17201 | 150.67287 | 15010 ft | 442 kts | 65° |
| 2026-05-07 13:01 | -34.15747 | 150.70517 | 14185 ft | 433 kts | 65° |
| 2026-05-07 13:02 | -34.14327 | 150.73671 | 13290 ft | 424 kts | 65° |
| 2026-05-07 13:02 | -34.12933 | 150.76770 | 12409 ft | 416 kts | 65° |
| 2026-05-07 13:02 | -34.11566 | 150.79804 | 11535 ft | 408 kts | 64° |
| 2026-05-07 13:02 | -34.10219 | 150.82791 | 10683 ft | 401 kts | 64° |
| 2026-05-07 13:03 | -34.08897 | 150.85724 | 9834 ft | 395 kts | 64° |
| 2026-05-07 13:03 | -34.08035 | 150.87640 | 9207 ft | 390 kts | 64° |
| 2026-05-07 13:03 | -34.06751 | 150.90491 | 8309 ft | 384 kts | 64° |
| 2026-05-07 13:03 | -34.05083 | 150.94195 | 7142 ft | 375 kts | 63° |
| 2026-05-07 13:04 | -34.04050 | 150.97030 | 6239 ft | 365 kts | 79° |
| 2026-05-07 13:04 | -34.03966 | 151.00000 | 5447 ft | 347 kts | 104° |
| 2026-05-07 13:04 | -34.04639 | 151.02689 | 4991 ft | 325 kts | 119° |
| 2026-05-07 13:04 | -34.05333 | 151.04238 | 4727 ft | 309 kts | 130° |
| 2026-05-07 13:05 | -34.06664 | 151.06162 | 4346 ft | 291 kts | 139° |
| 2026-05-07 13:05 | -34.08776 | 151.07901 | 3805 ft | 264 kts | 165° |
| 2026-05-07 13:05 | -34.09922 | 151.08302 | 3562 ft | 255 kts | 171° |
| 2026-05-07 13:05 | -34.12156 | 151.08866 | 3208 ft | 238 kts | 173° |
| 2026-05-07 13:06 | -34.13726 | 151.09249 | 3148 ft | 222 kts | 174° |
| 2026-05-07 13:06 | -34.14720 | 151.09497 | 3136 ft | 210 kts | 174° |
| 2026-05-07 13:06 | -34.16054 | 151.09842 | 3142 ft | 181 kts | 174° |
| 2026-05-07 13:06 | -34.17523 | 151.10227 | 3138 ft | 150 kts | 176° |
| 2026-05-07 13:07 | -34.18518 | 151.10482 | 3156 ft | 142 kts | 176° |
| 2026-05-07 13:07 | -34.19163 | 151.10647 | 3182 ft | 143 kts | 175° |
| 2026-05-07 13:07 | -34.19961 | 151.11344 | 3195 ft | 158 kts | 127° |
| 2026-05-07 13:07 | -34.19955 | 151.12741 | 3165 ft | 179 kts | 78° |
| 2026-05-07 13:08 | -34.19470 | 151.14157 | 3166 ft | 184 kts | 74° |
| 2026-05-07 13:08 | -34.18969 | 151.15589 | 3099 ft | 187 kts | 74° |
| 2026-05-07 13:08 | -34.18468 | 151.17027 | 3006 ft | 184 kts | 73° |
| 2026-05-07 13:08 | -34.17982 | 151.18418 | 2990 ft | 182 kts | 74° |
| 2026-05-07 13:09 | -34.17485 | 151.19832 | 2998 ft | 183 kts | 74° |
| 2026-05-07 13:09 | -34.16891 | 151.21188 | 2974 ft | 187 kts | 51° |
| 2026-05-07 13:09 | -34.15879 | 151.22195 | 2997 ft | 192 kts | 35° |
| 2026-05-07 13:09 | -34.14645 | 151.22770 | 2995 ft | 188 kts | 4° |
| 2026-05-07 13:10 | -34.13413 | 151.22565 | 3004 ft | 175 kts | 332° |
| 2026-05-07 13:10 | -34.12220 | 151.22179 | 3001 ft | 179 kts | 338° |
| 2026-05-07 13:10 | -34.10999 | 151.21848 | 2926 ft | 180 kts | 339° |
| 2026-05-07 13:10 | -34.09791 | 151.21533 | 2691 ft | 175 kts | 338° |
| 2026-05-07 13:11 | -34.08631 | 151.21232 | 2483 ft | 172 kts | 336° |
| 2026-05-07 13:11 | -34.07458 | 151.20926 | 2248 ft | 171 kts | 336° |
| 2026-05-07 13:11 | -34.06313 | 151.20631 | 2024 ft | 166 kts | 335° |
| 2026-05-07 13:11 | -34.05196 | 151.20339 | 1798 ft | 164 kts | 336° |
| 2026-05-07 13:12 | -34.04074 | 151.20047 | 1568 ft | 164 kts | 336° |
| 2026-05-07 13:12 | -34.02981 | 151.19765 | 1389 ft | 158 kts | 338° |
| 2026-05-07 13:12 | -34.01912 | 151.19488 | 1160 ft | 157 kts | 338° |
| 2026-05-07 13:12 | -34.00847 | 151.19211 | 953 ft | 155 kts | 338° |
| 2026-05-07 13:13 | -33.99806 | 151.18941 | 757 ft | 150 kts | 340° |
| 2026-05-07 13:13 | -33.98794 | 151.18680 | 548 ft | 150 kts | 338° |
| 2026-05-07 13:13 | -33.97795 | 151.18422 | 401 ft | 147 kts | 339° |
| 2026-05-07 13:13 | -33.96800 | 151.18150 | 165 ft | 147 kts | 340° |
| 2026-05-07 13:14 | -33.95832 | 151.17903 | 31 ft | 130 kts | 342° |
| 2026-05-07 13:14 | -33.95073 | 151.17693 | 26 ft | 91 kts | 351° |
| 2026-05-07 13:14 | -33.94606 | 151.17582 | 29 ft | 47 kts | 347° |
| 2026-05-07 13:14 | -33.94344 | 151.17506 | 29 ft | 37 kts | 348° |
| 2026-05-07 13:15 | -33.94095 | 151.17450 | 28 ft | 37 kts | 346° |
| 2026-05-07 13:15 | -33.93851 | 151.17388 | 27 ft | 35 kts | 349° |
| 2026-05-07 13:15 | -33.93612 | 151.17332 | 28 ft | 34 kts | 348° |
| 2026-05-07 13:15 | -33.93431 | 151.17311 | 26 ft | 15 kts | 46° |
| 2026-05-07 13:16 | -33.93395 | 151.17425 | 28 ft | 15 kts | 79° |
| 2026-05-07 13:16 | -33.93356 | 151.17550 | 29 ft | 17 kts | 38° |
| 2026-05-07 13:16 | -33.93239 | 151.17551 | 29 ft | 18 kts | 345° |
| 2026-05-07 13:16 | -33.93178 | 151.17536 | 29 ft | 10 kts | 348° |
| 2026-05-07 13:17 | -33.93132 | 151.17559 | 29 ft | 8 kts | 101° |
| 2026-05-07 13:17 | -33.93154 | 151.17621 | 29 ft | 8 kts | 114° |
| 2026-05-07 13:17 | -33.93157 | 151.17630 | 29 ft | 1 kts | 114° |
| 2026-05-07 13:17 | -33.93158 | 151.17631 | 29 ft | 0 kts | 115° |
| 2026-05-07 13:19 | -33.93158 | 151.17630 | 29 ft | 0 kts | 115° |